Saint Just, United Kingdom
Current Conditions -  °F | °C
As of 2:50 PM on Sunday 21 Dec 2014 (Local Time) from EGDR Reporting Station
Haze Haze  
Wind Chill: 52°   Ceiling: 600
Heat Index: 52°   Visibility: 4mi
Dew Point: 50°   Wind: 21mph
Humidity: 94%   Direction: 230°SW
Pressure: 30.36"   Gusts: 35mph
Location:  50.12°N, 5.7°W
Report Text: EGDR 211450Z 23018G30KT 6000 HZ FEW005 BKN006 OVC008 11/10 Q1028 YLO1
Loading
Personal Weather Stations






























Interactive Weather Map New forecast layout! Learn more

10-Day Weather Forecast

Advertisements
Track Severe Weather on mobile